sensor_id;sensor_type;location;lat;lon;timestamp;P1;durP1;ratioP1;P2;durP2;ratioP2
21822;SDS011;11074;48.596;9.238;2023-05-10T00:00:33;1.88;;;1.15;;
21822;SDS011;11074;48.596;9.238;2023-05-10T00:02:59;2.05;;;1.40;;
21822;SDS011;11074;48.596;9.238;2023-05-10T00:05:25;2.13;;;1.13;;
21822;SDS011;11074;48.596;9.238;2023-05-10T00:07:50;3.40;;;1.30;;
21822;SDS011;11074;48.596;9.238;2023-05-10T00:10:16;1.25;;;1.10;;
21822;SDS011;11074;48.596;9.238;2023-05-10T00:12:42;2.15;;;1.05;;
21822;SDS011;11074;48.596;9.238;2023-05-10T00:15:08;2.58;;;1.10;;
21822;SDS011;11074;48.596;9.238;2023-05-10T00:17:34;1.42;;;1.00;;
21822;SDS011;11074;48.596;9.238;2023-05-10T00:20:00;4.22;;;1.05;;
21822;SDS011;11074;48.596;9.238;2023-05-10T00:22:25;1.85;;;0.90;;
21822;SDS011;11074;48.596;9.238;2023-05-10T00:24:51;1.33;;;1.10;;
21822;SDS011;11074;48.596;9.238;2023-05-10T00:27:17;1.67;;;0.98;;
21822;SDS011;11074;48.596;9.238;2023-05-10T00:29:42;2.45;;;0.93;;
21822;SDS011;11074;48.596;9.238;2023-05-10T00:32:08;1.23;;;0.75;;
21822;SDS011;11074;48.596;9.238;2023-05-10T00:34:34;1.60;;;0.90;;
21822;SDS011;11074;48.596;9.238;2023-05-10T00:36:59;2.75;;;0.80;;
21822;SDS011;11074;48.596;9.238;2023-05-10T00:39:25;1.38;;;0.98;;
21822;SDS011;11074;48.596;9.238;2023-05-10T00:41:51;1.17;;;0.60;;
21822;SDS011;11074;48.596;9.238;2023-05-10T00:44:17;4.68;;;0.85;;
21822;SDS011;11074;48.596;9.238;2023-05-10T00:46:43;1.02;;;0.70;;
21822;SDS011;11074;48.596;9.238;2023-05-10T00:49:10;1.92;;;0.80;;
21822;SDS011;11074;48.596;9.238;2023-05-10T00:51:36;1.00;;;0.68;;
21822;SDS011;11074;48.596;9.238;2023-05-10T00:54:02;1.42;;;0.75;;
21822;SDS011;11074;48.596;9.238;2023-05-10T00:56:28;1.20;;;0.65;;
21822;SDS011;11074;48.596;9.238;2023-05-10T00:58:54;4.55;;;1.25;;
21822;SDS011;11074;48.596;9.238;2023-05-10T01:01:21;2.95;;;0.80;;
21822;SDS011;11074;48.596;9.238;2023-05-10T01:03:47;0.90;;;0.70;;
21822;SDS011;11074;48.596;9.238;2023-05-10T01:06:13;0.98;;;0.50;;
21822;SDS011;11074;48.596;9.238;2023-05-10T01:08:39;0.95;;;0.55;;
21822;SDS011;11074;48.596;9.238;2023-05-10T01:11:05;1.83;;;0.60;;
21822;SDS011;11074;48.596;9.238;2023-05-10T01:13:35;0.85;;;0.40;;
21822;SDS011;11074;48.596;9.238;2023-05-10T01:16:04;1.17;;;0.50;;
21822;SDS011;11074;48.596;9.238;2023-05-10T01:18:32;1.45;;;0.65;;
21822;SDS011;11074;48.596;9.238;2023-05-10T01:21:07;1.65;;;0.50;;
21822;SDS011;11074;48.596;9.238;2023-05-10T01:23:57;1.08;;;0.50;;
21822;SDS011;11074;48.596;9.238;2023-05-10T01:35:32;0.70;;;0.38;;
21822;SDS011;11074;48.596;9.238;2023-05-10T01:41:19;2.28;;;0.65;;
21822;SDS011;11074;48.596;9.238;2023-05-10T01:47:10;0.50;;;0.50;;
21822;SDS011;11074;48.596;9.238;2023-05-10T01:49:45;0.95;;;0.40;;
21822;SDS011;11074;48.596;9.238;2023-05-10T01:52:16;1.98;;;0.40;;
21822;SDS011;11074;48.596;9.238;2023-05-10T01:54:59;0.55;;;0.30;;
21822;SDS011;11074;48.596;9.238;2023-05-10T01:57:33;1.13;;;0.47;;
21822;SDS011;11074;48.596;9.238;2023-05-10T02:00:05;1.63;;;0.40;;
21822;SDS011;11074;48.596;9.238;2023-05-10T02:02:37;0.30;;;0.30;;
21822;SDS011;11074;48.596;9.238;2023-05-10T02:05:07;2.42;;;0.40;;
21822;SDS011;11074;48.596;9.238;2023-05-10T02:07:34;0.60;;;0.40;;
21822;SDS011;11074;48.596;9.238;2023-05-10T02:10:02;0.95;;;0.60;;
21822;SDS011;11074;48.596;9.238;2023-05-10T02:12:33;1.17;;;0.35;;
21822;SDS011;11074;48.596;9.238;2023-05-10T02:15:03;0.65;;;0.60;;
21822;SDS011;11074;48.596;9.238;2023-05-10T02:17:32;0.82;;;0.35;;
21822;SDS011;11074;48.596;9.238;2023-05-10T02:20:00;2.45;;;0.40;;
21822;SDS011;11074;48.596;9.238;2023-05-10T02:22:28;2.58;;;0.38;;
21822;SDS011;11074;48.596;9.238;2023-05-10T02:24:56;1.60;;;0.32;;
21822;SDS011;11074;48.596;9.238;2023-05-10T02:27:24;0.82;;;0.32;;
21822;SDS011;11074;48.596;9.238;2023-05-10T02:29:52;1.38;;;0.40;;
21822;SDS011;11074;48.596;9.238;2023-05-10T02:32:20;2.38;;;0.32;;
21822;SDS011;11074;48.596;9.238;2023-05-10T02:34:49;1.45;;;0.28;;
21822;SDS011;11074;48.596;9.238;2023-05-10T02:37:18;1.23;;;0.40;;
21822;SDS011;11074;48.596;9.238;2023-05-10T02:39:47;4.50;;;0.52;;
21822;SDS011;11074;48.596;9.238;2023-05-10T02:42:18;0.73;;;0.35;;
21822;SDS011;11074;48.596;9.238;2023-05-10T02:44:50;0.60;;;0.20;;
21822;SDS011;11074;48.596;9.238;2023-05-10T02:47:21;4.28;;;0.50;;
21822;SDS011;11074;48.596;9.238;2023-05-10T02:49:47;0.60;;;0.32;;
21822;SDS011;11074;48.596;9.238;2023-05-10T02:52:14;1.27;;;0.30;;
21822;SDS011;11074;48.596;9.238;2023-05-10T02:54:47;2.20;;;0.30;;
21822;SDS011;11074;48.596;9.238;2023-05-10T02:57:28;0.45;;;0.38;;
21822;SDS011;11074;48.596;9.238;2023-05-10T02:59:59;0.63;;;0.20;;
21822;SDS011;11074;48.596;9.238;2023-05-10T03:02:28;0.32;;;0.17;;
21822;SDS011;11074;48.596;9.238;2023-05-10T03:04:55;1.20;;;0.28;;
21822;SDS011;11074;48.596;9.238;2023-05-10T03:07:21;0.68;;;0.20;;
21822;SDS011;11074;48.596;9.238;2023-05-10T03:09:48;0.73;;;0.20;;
21822;SDS011;11074;48.596;9.238;2023-05-10T03:12:27;0.30;;;0.30;;
21822;SDS011;11074;48.596;9.238;2023-05-10T03:15:51;0.20;;;0.20;;
21822;SDS011;11074;48.596;9.238;2023-05-10T03:18:50;1.95;;;0.30;;
21822;SDS011;11074;48.596;9.238;2023-05-10T03:21:37;0.65;;;0.20;;
21822;SDS011;11074;48.596;9.238;2023-05-10T03:24:12;0.20;;;0.20;;
21822;SDS011;11074;48.596;9.238;2023-05-10T03:26:40;0.65;;;0.20;;
21822;SDS011;11074;48.596;9.238;2023-05-10T03:29:10;1.55;;;0.40;;
21822;SDS011;11074;48.596;9.238;2023-05-10T03:31:39;1.05;;;0.25;;
21822;SDS011;11074;48.596;9.238;2023-05-10T03:34:06;1.05;;;0.40;;
21822;SDS011;11074;48.596;9.238;2023-05-10T03:36:32;1.20;;;0.60;;
21822;SDS011;11074;48.596;9.238;2023-05-10T03:38:58;1.13;;;0.50;;
21822;SDS011;11074;48.596;9.238;2023-05-10T03:41:24;0.40;;;0.40;;
21822;SDS011;11074;48.596;9.238;2023-05-10T03:43:50;2.58;;;0.40;;
21822;SDS011;11074;48.596;9.238;2023-05-10T03:46:16;1.40;;;0.40;;
21822;SDS011;11074;48.596;9.238;2023-05-10T03:48:42;1.48;;;0.52;;
21822;SDS011;11074;48.596;9.238;2023-05-10T03:51:07;1.17;;;0.60;;
21822;SDS011;11074;48.596;9.238;2023-05-10T03:53:33;1.65;;;0.30;;
21822;SDS011;11074;48.596;9.238;2023-05-10T03:55:59;1.38;;;0.38;;
21822;SDS011;11074;48.596;9.238;2023-05-10T03:58:24;0.52;;;0.30;;
21822;SDS011;11074;48.596;9.238;2023-05-10T04:00:50;0.85;;;0.60;;
21822;SDS011;11074;48.596;9.238;2023-05-10T04:03:17;0.80;;;0.50;;
21822;SDS011;11074;48.596;9.238;2023-05-10T04:05:50;1.15;;;0.43;;
21822;SDS011;11074;48.596;9.238;2023-05-10T04:08:25;2.05;;;0.60;;
21822;SDS011;11074;48.596;9.238;2023-05-10T04:10:51;0.93;;;0.60;;
21822;SDS011;11074;48.596;9.238;2023-05-10T04:13:19;1.85;;;0.50;;
21822;SDS011;11074;48.596;9.238;2023-05-10T04:15:44;1.23;;;0.50;;
21822;SDS011;11074;48.596;9.238;2023-05-10T04:18:10;0.68;;;0.40;;
21822;SDS011;11074;48.596;9.238;2023-05-10T04:20:36;1.50;;;0.60;;
21822;SDS011;11074;48.596;9.238;2023-05-10T04:23:02;1.17;;;0.60;;
21822;SDS011;11074;48.596;9.238;2023-05-10T04:25:27;3.70;;;0.70;;
21822;SDS011;11074;48.596;9.238;2023-05-10T04:27:53;1.38;;;0.60;;
21822;SDS011;11074;48.596;9.238;2023-05-10T04:30:19;0.85;;;0.63;;
21822;SDS011;11074;48.596;9.238;2023-05-10T04:32:44;3.83;;;0.75;;
21822;SDS011;11074;48.596;9.238;2023-05-10T04:35:10;0.52;;;0.50;;
21822;SDS011;11074;48.596;9.238;2023-05-10T04:37:36;1.10;;;0.50;;
21822;SDS011;11074;48.596;9.238;2023-05-10T04:40:02;0.65;;;0.57;;
21822;SDS011;11074;48.596;9.238;2023-05-10T04:42:28;1.75;;;0.60;;
21822;SDS011;11074;48.596;9.238;2023-05-10T04:44:54;1.92;;;0.50;;
21822;SDS011;11074;48.596;9.238;2023-05-10T04:47:20;1.52;;;0.50;;
21822;SDS011;11074;48.596;9.238;2023-05-10T04:49:46;0.98;;;0.57;;
21822;SDS011;11074;48.596;9.238;2023-05-10T04:52:11;1.42;;;0.60;;
21822;SDS011;11074;48.596;9.238;2023-05-10T04:54:37;1.38;;;0.60;;
21822;SDS011;11074;48.596;9.238;2023-05-10T04:57:03;1.52;;;0.52;;
21822;SDS011;11074;48.596;9.238;2023-05-10T04:59:28;0.73;;;0.60;;
21822;SDS011;11074;48.596;9.238;2023-05-10T05:01:54;1.58;;;0.60;;
21822;SDS011;11074;48.596;9.238;2023-05-10T05:04:20;0.93;;;0.55;;
21822;SDS011;11074;48.596;9.238;2023-05-10T05:06:45;1.10;;;0.60;;
21822;SDS011;11074;48.596;9.238;2023-05-10T05:09:11;2.20;;;0.60;;
21822;SDS011;11074;48.596;9.238;2023-05-10T05:11:37;1.15;;;0.80;;
21822;SDS011;11074;48.596;9.238;2023-05-10T05:14:03;0.82;;;0.60;;
21822;SDS011;11074;48.596;9.238;2023-05-10T05:16:30;1.98;;;0.70;;
21822;SDS011;11074;48.596;9.238;2023-05-10T05:18:56;3.13;;;1.02;;
21822;SDS011;11074;48.596;9.238;2023-05-10T05:21:22;1.33;;;0.60;;
21822;SDS011;11074;48.596;9.238;2023-05-10T05:23:48;1.88;;;0.88;;
21822;SDS011;11074;48.596;9.238;2023-05-10T05:26:14;2.03;;;0.93;;
21822;SDS011;11074;48.596;9.238;2023-05-10T05:28:40;2.88;;;0.77;;
21822;SDS011;11074;48.596;9.238;2023-05-10T05:31:06;1.73;;;0.70;;
21822;SDS011;11074;48.596;9.238;2023-05-10T05:33:33;0.77;;;0.63;;
21822;SDS011;11074;48.596;9.238;2023-05-10T05:36:02;1.80;;;0.85;;
21822;SDS011;11074;48.596;9.238;2023-05-10T05:38:29;3.75;;;0.98;;
21822;SDS011;11074;48.596;9.238;2023-05-10T05:40:55;2.92;;;0.95;;
21822;SDS011;11074;48.596;9.238;2023-05-10T05:43:22;1.30;;;0.90;;
21822;SDS011;11074;48.596;9.238;2023-05-10T05:45:47;1.42;;;0.95;;
21822;SDS011;11074;48.596;9.238;2023-05-10T05:48:13;2.17;;;0.88;;
21822;SDS011;11074;48.596;9.238;2023-05-10T05:50:39;3.33;;;0.70;;
21822;SDS011;11074;48.596;9.238;2023-05-10T05:53:05;2.08;;;0.65;;
21822;SDS011;11074;48.596;9.238;2023-05-10T05:55:30;2.05;;;0.70;;
21822;SDS011;11074;48.596;9.238;2023-05-10T05:57:56;3.05;;;0.90;;
21822;SDS011;11074;48.596;9.238;2023-05-10T06:00:23;1.70;;;0.80;;
21822;SDS011;11074;48.596;9.238;2023-05-10T06:02:49;2.25;;;0.98;;
21822;SDS011;11074;48.596;9.238;2023-05-10T06:05:15;2.55;;;1.08;;
21822;SDS011;11074;48.596;9.238;2023-05-10T06:07:40;2.38;;;1.10;;
21822;SDS011;11074;48.596;9.238;2023-05-10T06:10:09;3.85;;;0.82;;
21822;SDS011;11074;48.596;9.238;2023-05-10T06:12:35;1.77;;;1.00;;
21822;SDS011;11074;48.596;9.238;2023-05-10T06:15:01;1.55;;;1.00;;
21822;SDS011;11074;48.596;9.238;2023-05-10T06:17:28;1.90;;;0.98;;
21822;SDS011;11074;48.596;9.238;2023-05-10T06:19:53;1.83;;;1.15;;
21822;SDS011;11074;48.596;9.238;2023-05-10T06:22:20;2.25;;;0.77;;
21822;SDS011;11074;48.596;9.238;2023-05-10T06:24:47;1.77;;;0.88;;
21822;SDS011;11074;48.596;9.238;2023-05-10T06:27:14;1.58;;;0.95;;
21822;SDS011;11074;48.596;9.238;2023-05-10T06:29:39;2.15;;;0.90;;
21822;SDS011;11074;48.596;9.238;2023-05-10T06:32:05;1.67;;;0.82;;
21822;SDS011;11074;48.596;9.238;2023-05-10T06:34:31;2.05;;;1.00;;
21822;SDS011;11074;48.596;9.238;2023-05-10T06:36:57;2.85;;;0.90;;
21822;SDS011;11074;48.596;9.238;2023-05-10T06:39:22;3.72;;;0.90;;
21822;SDS011;11074;48.596;9.238;2023-05-10T06:41:48;0.90;;;0.70;;
21822;SDS011;11074;48.596;9.238;2023-05-10T06:44:14;0.95;;;0.70;;
21822;SDS011;11074;48.596;9.238;2023-05-10T06:46:40;2.22;;;0.70;;
21822;SDS011;11074;48.596;9.238;2023-05-10T06:49:06;3.53;;;1.00;;
21822;SDS011;11074;48.596;9.238;2023-05-10T06:51:32;1.05;;;0.77;;
21822;SDS011;11074;48.596;9.238;2023-05-10T06:53:57;1.98;;;1.02;;
21822;SDS011;11074;48.596;9.238;2023-05-10T06:56:23;2.35;;;1.08;;
21822;SDS011;11074;48.596;9.238;2023-05-10T06:58:49;1.27;;;0.85;;
21822;SDS011;11074;48.596;9.238;2023-05-10T07:01:14;0.95;;;0.75;;
21822;SDS011;11074;48.596;9.238;2023-05-10T07:03:40;1.50;;;0.80;;
21822;SDS011;11074;48.596;9.238;2023-05-10T07:06:06;3.45;;;0.95;;
21822;SDS011;11074;48.596;9.238;2023-05-10T07:08:32;1.55;;;0.68;;
21822;SDS011;11074;48.596;9.238;2023-05-10T07:11:02;1.90;;;0.90;;
21822;SDS011;11074;48.596;9.238;2023-05-10T07:13:30;3.35;;;0.93;;
21822;SDS011;11074;48.596;9.238;2023-05-10T07:15:57;1.65;;;0.70;;
21822;SDS011;11074;48.596;9.238;2023-05-10T07:18:24;2.08;;;0.90;;
21822;SDS011;11074;48.596;9.238;2023-05-10T07:20:50;2.00;;;0.80;;
21822;SDS011;11074;48.596;9.238;2023-05-10T07:23:16;1.52;;;0.80;;
21822;SDS011;11074;48.596;9.238;2023-05-10T07:25:47;3.10;;;0.77;;
21822;SDS011;11074;48.596;9.238;2023-05-10T07:28:16;2.47;;;0.80;;
21822;SDS011;11074;48.596;9.238;2023-05-10T07:30:42;2.50;;;0.70;;
21822;SDS011;11074;48.596;9.238;2023-05-10T07:33:08;1.20;;;0.80;;
21822;SDS011;11074;48.596;9.238;2023-05-10T07:35:36;1.42;;;0.80;;
21822;SDS011;11074;48.596;9.238;2023-05-10T07:38:02;1.30;;;0.77;;
21822;SDS011;11074;48.596;9.238;2023-05-10T07:40:28;1.45;;;0.77;;
21822;SDS011;11074;48.596;9.238;2023-05-10T07:42:55;2.58;;;0.70;;
21822;SDS011;11074;48.596;9.238;2023-05-10T07:45:21;1.58;;;0.70;;
21822;SDS011;11074;48.596;9.238;2023-05-10T07:47:48;1.70;;;0.75;;
21822;SDS011;11074;48.596;9.238;2023-05-10T07:50:13;2.28;;;0.90;;
21822;SDS011;11074;48.596;9.238;2023-05-10T07:52:39;2.58;;;0.70;;
21822;SDS011;11074;48.596;9.238;2023-05-10T07:55:05;1.20;;;0.80;;
21822;SDS011;11074;48.596;9.238;2023-05-10T07:57:32;0.98;;;0.63;;
21822;SDS011;11074;48.596;9.238;2023-05-10T07:59:59;0.73;;;0.50;;
21822;SDS011;11074;48.596;9.238;2023-05-10T08:02:25;0.90;;;0.60;;
21822;SDS011;11074;48.596;9.238;2023-05-10T08:04:51;2.53;;;0.70;;
21822;SDS011;11074;48.596;9.238;2023-05-10T08:07:17;3.65;;;0.57;;
21822;SDS011;11074;48.596;9.238;2023-05-10T08:09:43;1.23;;;0.70;;
21822;SDS011;11074;48.596;9.238;2023-05-10T08:12:08;0.73;;;0.60;;
21822;SDS011;11074;48.596;9.238;2023-05-10T08:14:34;1.80;;;0.70;;
21822;SDS011;11074;48.596;9.238;2023-05-10T08:17:03;0.75;;;0.68;;
21822;SDS011;11074;48.596;9.238;2023-05-10T08:19:29;0.85;;;0.60;;
21822;SDS011;11074;48.596;9.238;2023-05-10T08:21:55;1.33;;;0.50;;
21822;SDS011;11074;48.596;9.238;2023-05-10T08:24:21;1.20;;;0.60;;
21822;SDS011;11074;48.596;9.238;2023-05-10T08:26:47;0.63;;;0.57;;
21822;SDS011;11074;48.596;9.238;2023-05-10T08:29:13;2.60;;;0.65;;
21822;SDS011;11074;48.596;9.238;2023-05-10T08:31:39;0.75;;;0.50;;
21822;SDS011;11074;48.596;9.238;2023-05-10T08:34:05;1.17;;;0.60;;
21822;SDS011;11074;48.596;9.238;2023-05-10T08:36:31;0.77;;;0.40;;
21822;SDS011;11074;48.596;9.238;2023-05-10T08:38:57;0.70;;;0.40;;
21822;SDS011;11074;48.596;9.238;2023-05-10T08:41:23;2.70;;;0.60;;
21822;SDS011;11074;48.596;9.238;2023-05-10T08:43:51;1.05;;;0.50;;
21822;SDS011;11074;48.596;9.238;2023-05-10T08:46:19;2.58;;;0.82;;
21822;SDS011;11074;48.596;9.238;2023-05-10T08:48:48;1.63;;;0.70;;
21822;SDS011;11074;48.596;9.238;2023-05-10T08:51:21;0.85;;;0.50;;
21822;SDS011;11074;48.596;9.238;2023-05-10T08:53:52;1.80;;;0.50;;
21822;SDS011;11074;48.596;9.238;2023-05-10T08:56:19;2.15;;;0.50;;
21822;SDS011;11074;48.596;9.238;2023-05-10T08:58:45;0.50;;;0.45;;
21822;SDS011;11074;48.596;9.238;2023-05-10T09:01:12;0.95;;;0.50;;
21822;SDS011;11074;48.596;9.238;2023-05-10T09:03:41;0.80;;;0.50;;
21822;SDS011;11074;48.596;9.238;2023-05-10T09:06:07;1.83;;;0.50;;
21822;SDS011;11074;48.596;9.238;2023-05-10T09:08:33;1.23;;;0.40;;
21822;SDS011;11074;48.596;9.238;2023-05-10T09:11:01;0.77;;;0.52;;
21822;SDS011;11074;48.596;9.238;2023-05-10T09:13:27;0.80;;;0.40;;
21822;SDS011;11074;48.596;9.238;2023-05-10T09:15:54;0.93;;;0.40;;
21822;SDS011;11074;48.596;9.238;2023-05-10T09:18:20;0.45;;;0.30;;
21822;SDS011;11074;48.596;9.238;2023-05-10T09:20:46;0.57;;;0.30;;
21822;SDS011;11074;48.596;9.238;2023-05-10T09:23:12;1.35;;;0.45;;
21822;SDS011;11074;48.596;9.238;2023-05-10T09:25:37;0.60;;;0.30;;
21822;SDS011;11074;48.596;9.238;2023-05-10T09:28:06;0.63;;;0.30;;
21822;SDS011;11074;48.596;9.238;2023-05-10T09:30:33;2.47;;;0.40;;
21822;SDS011;11074;48.596;9.238;2023-05-10T09:33:00;0.45;;;0.30;;
21822;SDS011;11074;48.596;9.238;2023-05-10T09:35:27;0.50;;;0.30;;
21822;SDS011;11074;48.596;9.238;2023-05-10T09:37:56;12.00;;;0.82;;
21822;SDS011;11074;48.596;9.238;2023-05-10T09:40:30;1.42;;;0.40;;
21822;SDS011;11074;48.596;9.238;2023-05-10T09:42:58;3.13;;;0.50;;
21822;SDS011;11074;48.596;9.238;2023-05-10T09:45:32;0.50;;;0.40;;
21822;SDS011;11074;48.596;9.238;2023-05-10T09:48:00;0.60;;;0.40;;
21822;SDS011;11074;48.596;9.238;2023-05-10T09:50:28;0.95;;;0.60;;
21822;SDS011;11074;48.596;9.238;2023-05-10T09:52:55;1.27;;;0.40;;
21822;SDS011;11074;48.596;9.238;2023-05-10T09:55:25;0.30;;;0.30;;
21822;SDS011;11074;48.596;9.238;2023-05-10T09:58:06;0.63;;;0.30;;
21822;SDS011;11074;48.596;9.238;2023-05-10T10:00:36;0.60;;;0.30;;
21822;SDS011;11074;48.596;9.238;2023-05-10T10:03:14;0.73;;;0.30;;
21822;SDS011;11074;48.596;9.238;2023-05-10T10:05:42;0.38;;;0.30;;
21822;SDS011;11074;48.596;9.238;2023-05-10T10:08:09;0.85;;;0.30;;
21822;SDS011;11074;48.596;9.238;2023-05-10T10:10:37;1.00;;;0.35;;
21822;SDS011;11074;48.596;9.238;2023-05-10T10:13:05;0.85;;;0.30;;
21822;SDS011;11074;48.596;9.238;2023-05-10T10:15:31;5.00;;;0.35;;
21822;SDS011;11074;48.596;9.238;2023-05-10T10:17:59;0.77;;;0.30;;
21822;SDS011;11074;48.596;9.238;2023-05-10T10:20:25;0.40;;;0.30;;
21822;SDS011;11074;48.596;9.238;2023-05-10T10:22:53;0.20;;;0.20;;
21822;SDS011;11074;48.596;9.238;2023-05-10T10:25:19;0.85;;;0.38;;
21822;SDS011;11074;48.596;9.238;2023-05-10T10:36:20;0.70;;;0.30;;
21822;SDS011;11074;48.596;9.238;2023-05-10T10:52:13;1.73;;;0.50;;
21822;SDS011;11074;48.596;9.238;2023-05-10T11:05:40;1.73;;;0.52;;
21822;SDS011;11074;48.596;9.238;2023-05-10T11:23:56;1.20;;;0.40;;
21822;SDS011;11074;48.596;9.238;2023-05-10T11:26:31;1.60;;;0.70;;
21822;SDS011;11074;48.596;9.238;2023-05-10T11:28:59;1.70;;;0.50;;
21822;SDS011;11074;48.596;9.238;2023-05-10T11:31:27;2.83;;;0.50;;
21822;SDS011;11074;48.596;9.238;2023-05-10T11:33:54;1.17;;;0.40;;
21822;SDS011;11074;48.596;9.238;2023-05-10T11:36:26;1.73;;;0.60;;
21822;SDS011;11074;48.596;9.238;2023-05-10T11:38:57;1.13;;;0.70;;
21822;SDS011;11074;48.596;9.238;2023-05-10T11:41:23;1.58;;;0.60;;
21822;SDS011;11074;48.596;9.238;2023-05-10T11:43:50;5.30;;;1.20;;
21822;SDS011;11074;48.596;9.238;2023-05-10T11:46:19;3.03;;;1.10;;
21822;SDS011;11074;48.596;9.238;2023-05-10T11:48:49;6.35;;;1.25;;
21822;SDS011;11074;48.596;9.238;2023-05-10T11:51:21;3.42;;;1.40;;
21822;SDS011;11074;48.596;9.238;2023-05-10T11:53:49;3.78;;;0.90;;
21822;SDS011;11074;48.596;9.238;2023-05-10T11:56:17;1.90;;;0.80;;
21822;SDS011;11074;48.596;9.238;2023-05-10T11:58:43;1.60;;;0.90;;
21822;SDS011;11074;48.596;9.238;2023-05-10T12:01:09;2.40;;;0.85;;
21822;SDS011;11074;48.596;9.238;2023-05-10T12:03:35;1.45;;;0.90;;
21822;SDS011;11074;48.596;9.238;2023-05-10T12:06:02;2.15;;;1.10;;
21822;SDS011;11074;48.596;9.238;2023-05-10T12:08:29;1.52;;;0.80;;
21822;SDS011;11074;48.596;9.238;2023-05-10T12:11:06;3.88;;;1.10;;
21822;SDS011;11074;48.596;9.238;2023-05-10T12:13:40;2.95;;;1.08;;
21822;SDS011;11074;48.596;9.238;2023-05-10T12:18:48;6.13;;;1.05;;
21822;SDS011;11074;48.596;9.238;2023-05-10T12:21:16;4.72;;;1.08;;
21822;SDS011;11074;48.596;9.238;2023-05-10T12:23:43;1.20;;;0.80;;
21822;SDS011;11074;48.596;9.238;2023-05-10T12:26:12;1.45;;;0.80;;
21822;SDS011;11074;48.596;9.238;2023-05-10T12:28:38;2.53;;;1.25;;
21822;SDS011;11074;48.596;9.238;2023-05-10T12:31:06;2.08;;;1.30;;
21822;SDS011;11074;48.596;9.238;2023-05-10T12:33:39;5.45;;;1.42;;
21822;SDS011;11074;48.596;9.238;2023-05-10T12:36:10;4.47;;;1.77;;
21822;SDS011;11074;48.596;9.238;2023-05-10T12:38:39;4.25;;;1.80;;
21822;SDS011;11074;48.596;9.238;2023-05-10T12:41:13;6.88;;;2.78;;
21822;SDS011;11074;48.596;9.238;2023-05-10T12:43:40;8.43;;;4.30;;
21822;SDS011;11074;48.596;9.238;2023-05-10T12:46:10;9.05;;;3.92;;
21822;SDS011;11074;48.596;9.238;2023-05-10T12:48:39;4.72;;;1.73;;
21822;SDS011;11074;48.596;9.238;2023-05-10T12:51:06;2.28;;;1.00;;
21822;SDS011;11074;48.596;9.238;2023-05-10T12:53:34;2.95;;;0.95;;
21822;SDS011;11074;48.596;9.238;2023-05-10T12:56:00;1.65;;;0.80;;
21822;SDS011;11074;48.596;9.238;2023-05-10T12:58:26;2.70;;;1.00;;
21822;SDS011;11074;48.596;9.238;2023-05-10T13:00:52;2.85;;;0.70;;
21822;SDS011;11074;48.596;9.238;2023-05-10T13:03:18;3.42;;;1.35;;
21822;SDS011;11074;48.596;9.238;2023-05-10T13:05:44;2.28;;;1.10;;
21822;SDS011;11074;48.596;9.238;2023-05-10T13:08:10;2.13;;;1.00;;
21822;SDS011;11074;48.596;9.238;2023-05-10T13:10:36;1.65;;;0.88;;
21822;SDS011;11074;48.596;9.238;2023-05-10T13:13:01;1.50;;;0.88;;
21822;SDS011;11074;48.596;9.238;2023-05-10T13:15:27;3.08;;;1.00;;
21822;SDS011;11074;48.596;9.238;2023-05-10T13:17:53;1.50;;;0.80;;
21822;SDS011;11074;48.596;9.238;2023-05-10T13:20:19;1.25;;;0.60;;
21822;SDS011;11074;48.596;9.238;2023-05-10T13:22:45;0.98;;;0.60;;
21822;SDS011;11074;48.596;9.238;2023-05-10T13:25:11;2.38;;;0.75;;
21822;SDS011;11074;48.596;9.238;2023-05-10T13:27:38;0.73;;;0.50;;
21822;SDS011;11074;48.596;9.238;2023-05-10T13:30:05;1.45;;;0.68;;
21822;SDS011;11074;48.596;9.238;2023-05-10T13:32:33;1.65;;;0.80;;
21822;SDS011;11074;48.596;9.238;2023-05-10T13:34:59;2.03;;;0.70;;
21822;SDS011;11074;48.596;9.238;2023-05-10T13:37:25;2.78;;;0.60;;
21822;SDS011;11074;48.596;9.238;2023-05-10T13:39:51;1.05;;;0.60;;
21822;SDS011;11074;48.596;9.238;2023-05-10T13:42:17;2.45;;;0.80;;
21822;SDS011;11074;48.596;9.238;2023-05-10T13:44:43;0.95;;;0.60;;
21822;SDS011;11074;48.596;9.238;2023-05-10T13:47:09;1.00;;;0.70;;
21822;SDS011;11074;48.596;9.238;2023-05-10T13:49:35;3.70;;;0.90;;
21822;SDS011;11074;48.596;9.238;2023-05-10T13:52:01;2.65;;;0.82;;
21822;SDS011;11074;48.596;9.238;2023-05-10T13:54:32;2.75;;;0.90;;
21822;SDS011;11074;48.596;9.238;2023-05-10T13:56:59;3.17;;;0.80;;
21822;SDS011;11074;48.596;9.238;2023-05-10T13:59:25;2.40;;;0.95;;
21822;SDS011;11074;48.596;9.238;2023-05-10T14:01:50;1.85;;;0.75;;
21822;SDS011;11074;48.596;9.238;2023-05-10T14:04:16;4.05;;;0.88;;
21822;SDS011;11074;48.596;9.238;2023-05-10T14:06:42;3.22;;;0.60;;
21822;SDS011;11074;48.596;9.238;2023-05-10T14:09:07;1.63;;;0.70;;
21822;SDS011;11074;48.596;9.238;2023-05-10T14:11:33;2.83;;;0.68;;
21822;SDS011;11074;48.596;9.238;2023-05-10T14:13:59;1.17;;;0.52;;
21822;SDS011;11074;48.596;9.238;2023-05-10T14:16:24;1.02;;;0.55;;
21822;SDS011;11074;48.596;9.238;2023-05-10T14:18:51;1.88;;;0.70;;
21822;SDS011;11074;48.596;9.238;2023-05-10T14:21:16;1.90;;;0.70;;
21822;SDS011;11074;48.596;9.238;2023-05-10T14:23:42;3.20;;;0.80;;
21822;SDS011;11074;48.596;9.238;2023-05-10T14:26:08;3.38;;;0.77;;
21822;SDS011;11074;48.596;9.238;2023-05-10T14:28:33;1.30;;;0.55;;
21822;SDS011;11074;48.596;9.238;2023-05-10T14:30:59;4.45;;;0.82;;
21822;SDS011;11074;48.596;9.238;2023-05-10T14:33:25;2.03;;;0.70;;
21822;SDS011;11074;48.596;9.238;2023-05-10T14:35:50;2.35;;;0.80;;
21822;SDS011;11074;48.596;9.238;2023-05-10T14:38:16;2.00;;;0.80;;
21822;SDS011;11074;48.596;9.238;2023-05-10T14:40:42;2.67;;;0.90;;
21822;SDS011;11074;48.596;9.238;2023-05-10T14:43:08;2.05;;;0.80;;
21822;SDS011;11074;48.596;9.238;2023-05-10T14:45:34;1.85;;;0.60;;
21822;SDS011;11074;48.596;9.238;2023-05-10T14:48:00;1.98;;;0.65;;
21822;SDS011;11074;48.596;9.238;2023-05-10T14:50:29;2.35;;;0.60;;
21822;SDS011;11074;48.596;9.238;2023-05-10T14:52:56;1.13;;;0.60;;
21822;SDS011;11074;48.596;9.238;2023-05-10T14:55:22;3.28;;;0.90;;
21822;SDS011;11074;48.596;9.238;2023-05-10T14:57:48;1.13;;;0.60;;
21822;SDS011;11074;48.596;9.238;2023-05-10T15:00:15;2.53;;;0.70;;
21822;SDS011;11074;48.596;9.238;2023-05-10T15:02:41;1.63;;;0.98;;
21822;SDS011;11074;48.596;9.238;2023-05-10T15:05:07;2.65;;;0.80;;
21822;SDS011;11074;48.596;9.238;2023-05-10T15:07:33;3.08;;;0.70;;
21822;SDS011;11074;48.596;9.238;2023-05-10T15:09:59;2.17;;;0.70;;
21822;SDS011;11074;48.596;9.238;2023-05-10T15:12:25;3.47;;;0.70;;
21822;SDS011;11074;48.596;9.238;2023-05-10T15:14:51;3.78;;;0.80;;
21822;SDS011;11074;48.596;9.238;2023-05-10T15:17:16;2.85;;;0.70;;
21822;SDS011;11074;48.596;9.238;2023-05-10T15:19:42;2.03;;;0.68;;
21822;SDS011;11074;48.596;9.238;2023-05-10T15:22:08;2.72;;;0.73;;
21822;SDS011;11074;48.596;9.238;2023-05-10T15:24:33;2.10;;;0.60;;
21822;SDS011;11074;48.596;9.238;2023-05-10T15:26:59;1.20;;;0.50;;
21822;SDS011;11074;48.596;9.238;2023-05-10T15:29:25;1.30;;;0.50;;
21822;SDS011;11074;48.596;9.238;2023-05-10T15:31:51;2.00;;;0.82;;
21822;SDS011;11074;48.596;9.238;2023-05-10T15:34:17;3.40;;;0.75;;
21822;SDS011;11074;48.596;9.238;2023-05-10T15:36:43;3.03;;;0.70;;
21822;SDS011;11074;48.596;9.238;2023-05-10T15:39:10;2.05;;;0.75;;
21822;SDS011;11074;48.596;9.238;2023-05-10T15:41:36;1.95;;;0.80;;
21822;SDS011;11074;48.596;9.238;2023-05-10T15:44:02;2.42;;;0.80;;
21822;SDS011;11074;48.596;9.238;2023-05-10T15:46:29;2.08;;;0.88;;
21822;SDS011;11074;48.596;9.238;2023-05-10T15:48:56;2.13;;;0.80;;
21822;SDS011;11074;48.596;9.238;2023-05-10T15:51:23;4.30;;;1.00;;
21822;SDS011;11074;48.596;9.238;2023-05-10T15:53:50;3.72;;;0.98;;
21822;SDS011;11074;48.596;9.238;2023-05-10T15:56:16;3.03;;;0.90;;